Time;durP1;ratioP1;P1;durP2;ratioP2;P2;SDS_P1;SDS_P2;PMS_P1;PMS_P2;Temp;Humidity;BMP_temperature;BMP_pressure;BME280_temperature;BME280_humidity;BME280_pressure;Samples;Min_cycle;Max_cycle;Signal;HPM_P1;HPM_P2
2021/08/08 00:05:40;;;;;;;3.05;0.70;;;16.10;99.90;;;;;;6733943;88;20783;-77
2021/08/08 00:15:41;;;;;;;4.70;1.00;;;16.30;99.90;;;;;;6733829;88;20688;-76
2021/08/08 00:25:42;;;;;;;3.00;1.10;;;16.50;99.90;;;;;;6733604;88;20639;-76
2021/08/08 00:35:42;;;;;;;2.92;1.10;;;16.50;99.90;;;;;;6732290;88;20230;-76
2021/08/08 00:45:43;;;;;;;3.30;1.15;;;16.50;99.90;;;;;;6735449;88;20250;-75
2021/08/08 00:55:43;;;;;;;6.60;1.40;;;16.60;99.90;;;;;;6736537;88;20283;-75
2021/08/08 01:06:04;;;;;;;2.72;1.10;;;16.70;99.90;;;;;;6737309;88;20536;-76
2021/08/08 01:16:05;;;;;;;3.05;1.05;;;16.70;99.90;;;;;;6735978;88;20176;-76
2021/08/08 01:26:07;;;;;;;2.30;1.20;;;16.70;99.90;;;;;;6734087;88;20197;-77
2021/08/08 01:36:07;;;;;;;3.25;1.10;;;16.70;99.90;;;;;;6735546;88;20254;-77
2021/08/08 01:46:10;;;;;;;4.27;1.07;;;16.70;99.90;;;;;;6732664;88;20247;-77
2021/08/08 01:56:13;;;;;;;3.15;1.30;;;16.80;99.90;;;;;;6732291;88;21449;-77
2021/08/08 02:06:13;;;;;;;1.65;0.95;;;16.70;99.90;;;;;;6730822;88;20198;-77
2021/08/08 02:16:14;;;;;;;4.40;1.42;;;16.50;99.90;;;;;;6732424;88;20189;-77
2021/08/08 02:26:14;;;;;;;3.70;1.10;;;16.40;99.90;;;;;;6733738;88;20181;-77
2021/08/08 02:36:15;;;;;;;3.95;1.20;;;16.30;99.90;;;;;;6734351;88;20682;-77
2021/08/08 02:46:15;;;;;;;2.90;1.20;;;16.20;99.90;;;;;;6730727;77;20272;-76
2021/08/08 02:56:16;;;;;;;4.87;1.48;;;16.40;99.90;;;;;;6741004;88;20202;-77
2021/08/08 03:06:18;;;;;;;4.43;1.40;;;16.20;99.90;;;;;;6735941;88;20201;-75
2021/08/08 03:16:18;;;;;;;4.68;1.50;;;16.40;99.90;;;;;;6749780;88;20321;-77
2021/08/08 03:26:19;;;;;;;6.97;1.60;;;16.30;99.90;;;;;;6729672;88;20192;-77
2021/08/08 03:36:20;;;;;;;5.22;1.75;;;16.20;99.90;;;;;;6730168;88;20912;-77
2021/08/08 03:46:21;;;;;;;5.37;1.70;;;16.10;99.90;;;;;;6729757;88;20920;-77
2021/08/08 03:56:21;;;;;;;3.85;1.48;;;16.10;99.90;;;;;;6730188;88;20200;-77
2021/08/08 04:06:22;;;;;;;6.40;1.67;;;15.90;99.90;;;;;;6732492;88;20233;-76
2021/08/08 04:16:23;;;;;;;3.85;1.58;;;15.80;99.90;;;;;;6733504;88;20275;-76
2021/08/08 04:26:23;;;;;;;5.07;1.90;;;15.70;99.90;;;;;;6729634;88;20205;-77
2021/08/08 04:36:24;;;;;;;3.72;1.80;;;15.60;99.90;;;;;;6730669;88;20328;-77
2021/08/08 04:46:24;;;;;;;8.95;1.98;;;15.60;99.90;;;;;;6731860;88;20230;-77
2021/08/08 04:56:25;;;;;;;4.53;1.60;;;15.70;99.90;;;;;;6732647;88;20208;-77
2021/08/08 05:06:25;;;;;;;3.28;1.67;;;15.50;99.90;;;;;;6731768;88;20181;-76
2021/08/08 05:16:26;;;;;;;6.28;1.80;;;15.60;99.90;;;;;;6728294;88;20184;-77
2021/08/08 05:26:26;;;;;;;7.62;2.10;;;15.60;99.90;;;;;;6731185;88;20601;-77
2021/08/08 05:36:27;;;;;;;8.02;2.08;;;15.60;99.90;;;;;;6732184;88;20313;-77
2021/08/08 05:46:27;;;;;;;6.43;1.90;;;15.80;99.90;;;;;;6732342;88;20712;-77
2021/08/08 05:56:28;;;;;;;5.57;1.62;;;15.90;99.90;;;;;;6734576;88;20237;-77
2021/08/08 06:06:29;;;;;;;4.82;1.45;;;16.30;99.90;;;;;;6730387;88;20276;-77
2021/08/08 06:16:30;;;;;;;5.25;1.50;;;16.40;99.90;;;;;;6727218;88;20193;-77
2021/08/08 06:26:30;;;;;;;7.47;1.60;;;16.60;99.90;;;;;;6729588;88;20319;-77
2021/08/08 06:36:31;;;;;;;3.17;1.45;;;16.70;99.90;;;;;;6729876;88;20189;-77
2021/08/08 06:46:32;;;;;;;2.35;1.12;;;17.50;99.90;;;;;;6728078;88;20204;-77
2021/08/08 06:56:32;;;;;;;2.53;1.25;;;17.80;99.90;;;;;;6728128;88;20204;-77
2021/08/08 07:06:33;;;;;;;4.20;1.48;;;18.10;99.90;;;;;;6728838;88;20201;-77
2021/08/08 07:16:34;;;;;;;4.82;1.90;;;18.30;99.90;;;;;;6731059;88;20234;-77
2021/08/08 07:26:34;;;;;;;4.70;1.40;;;18.40;99.90;;;;;;6731738;88;20169;-77
2021/08/08 07:36:35;;;;;;;5.57;1.40;;;19.40;99.90;;;;;;6733171;88;20524;-77
2021/08/08 07:46:35;;;;;;;5.77;1.30;;;19.10;99.90;;;;;;6732535;88;20193;-77
2021/08/08 07:56:36;;;;;;;3.75;1.33;;;19.80;99.90;;;;;;6733940;88;20197;-77
2021/08/08 08:06:36;;;;;;;5.22;1.40;;;19.50;99.90;;;;;;6732689;88;20236;-77
2021/08/08 08:16:37;;;;;;;4.28;1.45;;;20.20;99.90;;;;;;6733344;88;20287;-76
2021/08/08 08:26:37;;;;;;;3.17;1.17;;;20.90;99.90;;;;;;6743736;88;20197;-77
2021/08/08 08:36:38;;;;;;;3.78;1.20;;;20.30;99.90;;;;;;6742195;88;20181;-76
2021/08/08 08:46:40;;;;;;;3.85;1.12;;;21.50;99.90;;;;;;6748386;88;22178;-75
2021/08/08 08:56:41;;;;;;;3.90;1.08;;;21.30;99.90;;;;;;6730296;88;20352;-75
2021/08/08 09:06:42;;;;;;;4.15;1.20;;;20.60;99.80;;;;;;6729694;88;20813;-75
2021/08/08 09:16:54;;;;;;;2.87;0.90;;;20.60;99.90;;;;;;6729975;88;20303;-75
2021/08/08 09:27:03;;;;;;;7.07;1.50;;;20.30;99.90;;;;;;6731008;88;20331;-74
2021/08/08 09:37:07;;;;;;;5.87;1.27;;;20.00;99.90;;;;;;6734380;88;20251;-77
2021/08/08 09:47:07;;;;;;;6.13;1.20;;;20.10;99.90;;;;;;6731674;88;20215;-76
2021/08/08 09:57:08;;;;;;;4.32;1.10;;;20.50;99.90;;;;;;6726962;88;20232;-75
2021/08/08 10:07:09;;;;;;;3.60;1.10;;;20.50;99.90;;;;;;6728658;88;20282;-76
2021/08/08 10:17:11;;;;;;;2.78;0.98;;;20.70;99.90;;;;;;6732520;88;20197;-76
2021/08/08 10:27:12;;;;;;;4.97;1.30;;;21.40;99.90;;;;;;6732607;88;20173;-77
2021/08/08 10:37:14;;;;;;;3.87;1.10;;;20.60;99.90;;;;;;6733869;88;20185;-77
2021/08/08 10:47:25;;;;;;;2.37;1.10;;;20.70;99.90;;;;;;6733675;88;20226;-76
2021/08/08 10:57:25;;;;;;;3.60;1.48;;;20.40;99.90;;;;;;6732613;88;20269;-77
2021/08/08 11:07:29;;;;;;;3.53;1.05;;;20.40;99.90;;;;;;6732361;88;20239;-77
2021/08/08 11:17:29;;;;;;;2.50;0.90;;;20.90;99.90;;;;;;6732173;88;20192;-77
2021/08/08 11:27:33;;;;;;;4.68;0.93;;;21.10;99.90;;;;;;6732322;88;20190;-77
2021/08/08 11:37:39;;;;;;;2.90;1.20;;;20.90;99.90;;;;;;6732548;88;20279;-77
2021/08/08 11:47:40;;;;;;;4.25;1.05;;;22.00;99.90;;;;;;6732490;88;20619;-77
2021/08/08 11:57:40;;;;;;;4.12;1.20;;;22.40;99.90;;;;;;6732799;88;20207;-77
2021/08/08 12:07:41;;;;;;;3.08;1.10;;;22.60;99.90;;;;;;6732028;88;20289;-77
2021/08/08 12:17:42;;;;;;;4.67;1.17;;;21.40;99.90;;;;;;6731646;88;20177;-76
2021/08/08 12:27:43;;;;;;;4.47;1.23;;;21.20;99.90;;;;;;6731400;88;20538;-77
2021/08/08 12:37:45;;;;;;;5.22;1.40;;;20.80;99.90;;;;;;6730942;88;20364;-76
2021/08/08 12:47:58;;;;;;;3.55;1.10;;;21.20;99.90;;;;;;6730788;88;20242;-77
2021/08/08 12:57:59;;;;;;;5.93;1.67;;;20.80;99.90;;;;;;6732827;88;20223;-76
2021/08/08 13:07:59;;;;;;;3.20;1.12;;;19.30;99.90;;;;;;6738375;88;20319;-77
2021/08/08 13:18:00;;;;;;;5.37;1.30;;;20.00;99.90;;;;;;6734389;88;20616;-77
2021/08/08 13:28:00;;;;;;;5.55;1.60;;;20.60;99.90;;;;;;6731423;88;20249;-76
2021/08/08 13:38:01;;;;;;;6.83;1.93;;;20.20;99.90;;;;;;6728311;88;20218;-76
2021/08/08 13:48:02;;;;;;;5.18;1.37;;;19.60;99.90;;;;;;6731856;88;20260;-76
2021/08/08 13:58:02;;;;;;;5.03;1.83;;;19.30;99.90;;;;;;6750542;88;20255;-75
2021/08/08 14:08:03;;;;;;;5.22;1.90;;;16.90;99.90;;;;;;6738985;88;20539;-74
2021/08/08 14:18:04;;;;;;;4.93;1.87;;;17.40;99.90;;;;;;6747697;88;20229;-74
2021/08/08 14:28:05;;;;;;;2.53;1.40;;;18.80;99.90;;;;;;6734118;88;20227;-77
2021/08/08 14:38:06;;;;;;;3.35;1.40;;;19.30;99.90;;;;;;6730688;88;20621;-74
2021/08/08 14:48:06;;;;;;;3.75;1.17;;;19.50;99.90;;;;;;6738325;77;20307;-74
2021/08/08 14:58:07;;;;;;;3.92;1.33;;;19.60;99.90;;;;;;6718229;88;20689;-75
2021/08/08 15:08:08;;;;;;;5.07;1.30;;;19.80;99.90;;;;;;6706120;88;20177;-75
2021/08/08 15:18:08;;;;;;;3.23;1.27;;;19.80;99.90;;;;;;6705046;88;20224;-74
2021/08/08 15:28:09;;;;;;;3.53;1.45;;;20.00;99.90;;;;;;6705147;88;20536;-75
2021/08/08 15:38:09;;;;;;;3.15;1.10;;;20.10;99.90;;;;;;6709816;88;20197;-74
2021/08/08 15:48:10;;;;;;;2.50;1.17;;;20.80;99.90;;;;;;6704627;88;20230;-75
2021/08/08 15:58:11;;;;;;;4.37;1.20;;;21.10;99.90;;;;;;6708346;88;20536;-76
2021/08/08 16:08:12;;;;;;;2.17;0.90;;;21.00;99.90;;;;;;6707166;88;20266;-75
2021/08/08 16:18:13;;;;;;;2.22;1.30;;;20.80;99.90;;;;;;6705855;88;20673;-78
2021/08/08 16:28:15;;;;;;;5.97;1.20;;;20.30;99.90;;;;;;6707424;88;20185;-75
2021/08/08 16:38:17;;;;;;;3.78;1.30;;;20.80;99.90;;;;;;6712851;88;20277;-74
2021/08/08 16:48:17;;;;;;;4.85;1.30;;;20.50;99.90;;;;;;6709111;88;20181;-75
2021/08/08 16:58:18;;;;;;;4.70;1.30;;;20.10;99.90;;;;;;6709420;88;20208;-74
2021/08/08 17:08:18;;;;;;;3.97;1.45;;;20.00;99.90;;;;;;6711719;88;20371;-76
2021/08/08 17:18:19;;;;;;;4.25;1.20;;;20.80;99.90;;;;;;6707621;88;20231;-76
2021/08/08 17:28:20;;;;;;;3.30;1.40;;;21.00;99.90;;;;;;6704220;88;20250;-76
2021/08/08 17:38:21;;;;;;;4.28;1.60;;;20.30;99.90;;;;;;6709626;88;20215;-76
2021/08/08 17:48:21;;;;;;;3.70;1.20;;;20.70;99.90;;;;;;6709862;88;20226;-76
2021/08/08 17:58:22;;;;;;;4.05;1.62;;;21.40;99.90;;;;;;6710696;88;20233;-74
2021/08/08 18:08:23;;;;;;;3.93;1.40;;;20.30;99.90;;;;;;6705096;88;20234;-75
2021/08/08 18:18:24;;;;;;;5.50;1.20;;;19.90;99.90;;;;;;6704326;88;20226;-75
2021/08/08 18:28:24;;;;;;;2.40;1.25;;;19.60;99.90;;;;;;6709333;88;20185;-76
2021/08/08 18:38:25;;;;;;;4.18;1.20;;;19.20;99.90;;;;;;6709851;88;20190;-75
2021/08/08 18:48:26;;;;;;;5.07;1.30;;;19.00;99.90;;;;;;6702615;88;20233;-76
2021/08/08 18:58:26;;;;;;;4.05;1.30;;;18.80;99.90;;;;;;6717825;88;20665;-79
2021/08/08 19:08:27;;;;;;;3.78;1.37;;;18.60;99.90;;;;;;6717294;88;20202;-77
2021/08/08 19:18:27;;;;;;;5.03;1.40;;;18.20;99.90;;;;;;6719994;88;20205;-77
2021/08/08 19:28:28;;;;;;;3.60;1.20;;;17.90;99.90;;;;;;6719165;88;20341;-77
2021/08/08 19:38:28;;;;;;;4.28;1.37;;;17.80;99.90;;;;;;6718060;88;20580;-76
2021/08/08 19:48:29;;;;;;;5.45;1.35;;;17.80;99.90;;;;;;6717392;88;20389;-78
2021/08/08 19:58:29;;;;;;;4.53;1.10;;;17.60;99.90;;;;;;6699929;88;20202;-77
2021/08/08 20:08:30;;;;;;;4.72;1.10;;;17.50;99.90;;;;;;6702369;88;20193;-75
2021/08/08 20:18:30;;;;;;;6.20;1.30;;;17.40;99.90;;;;;;6713205;88;20516;-75
2021/08/08 20:28:31;;;;;;;6.72;1.50;;;17.40;99.90;;;;;;6710651;88;20756;-75
2021/08/08 20:38:32;;;;;;;4.07;1.30;;;17.40;99.90;;;;;;6705473;88;20230;-75
2021/08/08 20:48:33;;;;;;;4.05;1.45;;;17.30;99.90;;;;;;6718452;77;20211;-78
2021/08/08 20:58:33;;;;;;;5.20;1.62;;;17.30;99.90;;;;;;6729496;88;20241;-76
2021/08/08 21:08:34;;;;;;;3.08;1.30;;;17.30;99.90;;;;;;6724447;88;20186;-76
2021/08/08 21:18:34;;;;;;;4.68;1.42;;;17.40;99.90;;;;;;6721874;88;20536;-77
2021/08/08 21:28:35;;;;;;;5.68;1.48;;;17.30;99.90;;;;;;6729056;88;20233;-77
2021/08/08 21:38:35;;;;;;;3.42;1.20;;;17.30;99.90;;;;;;6722837;88;20181;-77
2021/08/08 21:48:36;;;;;;;4.53;1.60;;;17.20;99.90;;;;;;6726081;88;20242;-77
2021/08/08 21:58:36;;;;;;;3.47;1.58;;;17.10;99.90;;;;;;6723141;88;20248;-78
2021/08/08 22:08:37;;;;;;;3.67;1.30;;;16.90;99.90;;;;;;6722691;88;20609;-76
2021/08/08 22:18:37;;;;;;;3.12;1.33;;;16.90;99.90;;;;;;6732218;88;20693;-76
2021/08/08 22:28:38;;;;;;;6.25;1.33;;;16.90;99.90;;;;;;6729538;88;20227;-76
2021/08/08 22:38:38;;;;;;;3.87;1.33;;;16.80;99.90;;;;;;6726563;88;20262;-75
2021/08/08 22:48:39;;;;;;;4.75;1.20;;;16.60;99.90;;;;;;6729907;88;20370;-76
2021/08/08 22:58:39;;;;;;;5.20;1.42;;;16.60;99.90;;;;;;6724002;88;20211;-76
2021/08/08 23:08:40;;;;;;;4.53;1.30;;;16.50;99.90;;;;;;6728769;88;20318;-75
2021/08/08 23:18:41;;;;;;;2.67;1.00;;;16.40;99.90;;;;;;6724940;88;20575;-78
2021/08/08 23:28:41;;;;;;;4.65;1.10;;;16.30;99.90;;;;;;6727681;88;20224;-76
2021/08/08 23:38:42;;;;;;;3.63;1.13;;;16.20;99.90;;;;;;6725904;88;20740;-76
2021/08/08 23:48:42;;;;;;;4.07;1.37;;;16.10;99.90;;;;;;6720851;88;20208;-75
2021/08/08 23:58:43;;;;;;;2.58;1.20;;;15.90;99.90;;;;;;6732981;88;20220;-75
